sensor_id;sensor_type;location;lat;lon;timestamp;P1;durP1;ratioP1;P2;durP2;ratioP2
7557;SDS011;3820;51.098;13.716;2022-08-06T00:02:32;0.60;;;0.60;;
7557;SDS011;3820;51.098;13.716;2022-08-06T00:05:01;0.60;;;0.60;;
7557;SDS011;3820;51.098;13.716;2022-08-06T00:07:32;0.70;;;0.70;;
7557;SDS011;3820;51.098;13.716;2022-08-06T00:10:13;0.65;;;0.65;;
7557;SDS011;3820;51.098;13.716;2022-08-06T00:12:44;0.60;;;0.60;;
7557;SDS011;3820;51.098;13.716;2022-08-06T00:15:13;0.63;;;0.63;;
7557;SDS011;3820;51.098;13.716;2022-08-06T00:17:41;0.55;;;0.55;;
7557;SDS011;3820;51.098;13.716;2022-08-06T00:20:08;1.67;;;0.65;;
7557;SDS011;3820;51.098;13.716;2022-08-06T00:22:36;0.60;;;0.60;;
7557;SDS011;3820;51.098;13.716;2022-08-06T00:25:03;1.08;;;0.70;;
7557;SDS011;3820;51.098;13.716;2022-08-06T00:27:31;1.48;;;1.33;;
7557;SDS011;3820;51.098;13.716;2022-08-06T00:30:04;1.25;;;0.60;;
7557;SDS011;3820;51.098;13.716;2022-08-06T00:32:44;0.60;;;0.60;;
7557;SDS011;3820;51.098;13.716;2022-08-06T00:35:17;0.98;;;0.98;;
7557;SDS011;3820;51.098;13.716;2022-08-06T00:37:48;0.63;;;0.63;;
7557;SDS011;3820;51.098;13.716;2022-08-06T00:40:24;1.40;;;0.88;;
7557;SDS011;3820;51.098;13.716;2022-08-06T00:42:56;0.52;;;0.45;;
7557;SDS011;3820;51.098;13.716;2022-08-06T00:45:27;0.77;;;0.73;;
7557;SDS011;3820;51.098;13.716;2022-08-06T00:47:58;0.82;;;0.82;;
7557;SDS011;3820;51.098;13.716;2022-08-06T00:50:29;0.60;;;0.60;;
7557;SDS011;3820;51.098;13.716;2022-08-06T00:52:56;0.95;;;0.88;;
7557;SDS011;3820;51.098;13.716;2022-08-06T00:55:23;0.80;;;0.80;;
7557;SDS011;3820;51.098;13.716;2022-08-06T00:58:02;0.80;;;0.65;;
7557;SDS011;3820;51.098;13.716;2022-08-06T01:00:30;1.23;;;1.13;;
7557;SDS011;3820;51.098;13.716;2022-08-06T01:03:06;0.45;;;0.45;;
7557;SDS011;3820;51.098;13.716;2022-08-06T01:05:52;2.30;;;0.73;;
7557;SDS011;3820;51.098;13.716;2022-08-06T01:08:40;0.40;;;0.40;;
7557;SDS011;3820;51.098;13.716;2022-08-06T01:11:08;3.67;;;1.52;;
7557;SDS011;3820;51.098;13.716;2022-08-06T01:13:35;0.82;;;0.77;;
7557;SDS011;3820;51.098;13.716;2022-08-06T01:16:22;0.30;;;0.30;;
7557;SDS011;3820;51.098;13.716;2022-08-06T01:18:59;0.47;;;0.47;;
7557;SDS011;3820;51.098;13.716;2022-08-06T01:21:51;0.57;;;0.50;;
7557;SDS011;3820;51.098;13.716;2022-08-06T01:30:08;0.40;;;0.40;;
7557;SDS011;3820;51.098;13.716;2022-08-06T01:32:38;0.93;;;0.88;;
7557;SDS011;3820;51.098;13.716;2022-08-06T01:35:12;1.33;;;0.82;;
7557;SDS011;3820;51.098;13.716;2022-08-06T01:38:13;1.08;;;0.55;;
7557;SDS011;3820;51.098;13.716;2022-08-06T01:40:44;0.80;;;0.57;;
7557;SDS011;3820;51.098;13.716;2022-08-06T01:43:17;0.68;;;0.68;;
7557;SDS011;3820;51.098;13.716;2022-08-06T01:46:06;0.88;;;0.88;;
7557;SDS011;3820;51.098;13.716;2022-08-06T01:48:36;0.93;;;0.60;;
7557;SDS011;3820;51.098;13.716;2022-08-06T01:51:04;2.10;;;1.05;;
7557;SDS011;3820;51.098;13.716;2022-08-06T01:53:46;1.52;;;0.70;;
7557;SDS011;3820;51.098;13.716;2022-08-06T01:56:34;3.83;;;1.63;;
7557;SDS011;3820;51.098;13.716;2022-08-06T01:59:22;2.40;;;1.63;;
7557;SDS011;3820;51.098;13.716;2022-08-06T02:01:52;1.15;;;0.98;;
7557;SDS011;3820;51.098;13.716;2022-08-06T02:04:21;0.85;;;0.60;;
7557;SDS011;3820;51.098;13.716;2022-08-06T02:06:52;0.93;;;0.93;;
7557;SDS011;3820;51.098;13.716;2022-08-06T02:09:21;0.65;;;0.65;;
7557;SDS011;3820;51.098;13.716;2022-08-06T02:12:00;1.33;;;0.90;;
7557;SDS011;3820;51.098;13.716;2022-08-06T02:14:34;0.68;;;0.68;;
7557;SDS011;3820;51.098;13.716;2022-08-06T02:17:03;0.88;;;0.88;;
7557;SDS011;3820;51.098;13.716;2022-08-06T02:19:48;0.80;;;0.80;;
7557;SDS011;3820;51.098;13.716;2022-08-06T02:22:37;1.20;;;1.10;;
7557;SDS011;3820;51.098;13.716;2022-08-06T02:25:09;0.98;;;0.98;;
7557;SDS011;3820;51.098;13.716;2022-08-06T02:27:48;2.17;;;0.70;;
7557;SDS011;3820;51.098;13.716;2022-08-06T02:30:25;1.40;;;1.00;;
7557;SDS011;3820;51.098;13.716;2022-08-06T02:33:02;0.93;;;0.93;;
7557;SDS011;3820;51.098;13.716;2022-08-06T02:35:32;1.02;;;0.82;;
7557;SDS011;3820;51.098;13.716;2022-08-06T02:38:04;0.57;;;0.50;;
7557;SDS011;3820;51.098;13.716;2022-08-06T02:40:36;1.20;;;0.90;;
7557;SDS011;3820;51.098;13.716;2022-08-06T02:43:18;0.85;;;0.73;;
7557;SDS011;3820;51.098;13.716;2022-08-06T02:45:55;0.95;;;0.70;;
7557;SDS011;3820;51.098;13.716;2022-08-06T02:49:09;0.98;;;0.98;;
7557;SDS011;3820;51.098;13.716;2022-08-06T02:51:31;0.70;;;0.65;;
7557;SDS011;3820;51.098;13.716;2022-08-06T02:54:22;3.83;;;1.13;;
7557;SDS011;3820;51.098;13.716;2022-08-06T02:56:55;0.77;;;0.77;;
7557;SDS011;3820;51.098;13.716;2022-08-06T02:59:29;1.88;;;1.10;;
7557;SDS011;3820;51.098;13.716;2022-08-06T03:02:06;0.80;;;0.80;;
7557;SDS011;3820;51.098;13.716;2022-08-06T03:04:38;1.00;;;0.98;;
7557;SDS011;3820;51.098;13.716;2022-08-06T03:07:19;2.30;;;0.73;;
7557;SDS011;3820;51.098;13.716;2022-08-06T03:09:53;1.08;;;0.98;;
7557;SDS011;3820;51.098;13.716;2022-08-06T03:12:22;3.10;;;1.48;;
7557;SDS011;3820;51.098;13.716;2022-08-06T03:15:05;0.40;;;0.40;;
7557;SDS011;3820;51.098;13.716;2022-08-06T03:17:39;0.65;;;0.65;;
7557;SDS011;3820;51.098;13.716;2022-08-06T03:20:07;0.50;;;0.50;;
7557;SDS011;3820;51.098;13.716;2022-08-06T03:22:44;1.15;;;0.80;;
7557;SDS011;3820;51.098;13.716;2022-08-06T03:25:13;0.57;;;0.57;;
7557;SDS011;3820;51.098;13.716;2022-08-06T03:27:41;0.52;;;0.52;;
7557;SDS011;3820;51.098;13.716;2022-08-06T03:30:19;0.40;;;0.40;;
7557;SDS011;3820;51.098;13.716;2022-08-06T03:32:59;0.50;;;0.50;;
7557;SDS011;3820;51.098;13.716;2022-08-06T03:35:39;1.85;;;1.30;;
7557;SDS011;3820;51.098;13.716;2022-08-06T03:38:15;0.75;;;0.73;;
7557;SDS011;3820;51.098;13.716;2022-08-06T03:40:42;0.63;;;0.63;;
7557;SDS011;3820;51.098;13.716;2022-08-06T03:43:13;0.60;;;0.60;;
7557;SDS011;3820;51.098;13.716;2022-08-06T03:45:55;0.68;;;0.57;;
7557;SDS011;3820;51.098;13.716;2022-08-06T03:48:26;0.82;;;0.80;;
7557;SDS011;3820;51.098;13.716;2022-08-06T03:51:04;1.35;;;0.57;;
7557;SDS011;3820;51.098;13.716;2022-08-06T03:53:35;0.70;;;0.70;;
7557;SDS011;3820;51.098;13.716;2022-08-06T03:56:04;1.00;;;0.60;;
7557;SDS011;3820;51.098;13.716;2022-08-06T03:58:39;0.40;;;0.32;;
7557;SDS011;3820;51.098;13.716;2022-08-06T04:01:09;0.73;;;0.50;;
7557;SDS011;3820;51.098;13.716;2022-08-06T04:03:38;0.77;;;0.60;;
7557;SDS011;3820;51.098;13.716;2022-08-06T04:06:06;0.40;;;0.40;;
7557;SDS011;3820;51.098;13.716;2022-08-06T04:08:41;0.50;;;0.50;;
7557;SDS011;3820;51.098;13.716;2022-08-06T04:11:08;0.57;;;0.57;;
7557;SDS011;3820;51.098;13.716;2022-08-06T04:13:58;0.40;;;0.40;;
7557;SDS011;3820;51.098;13.716;2022-08-06T04:16:33;0.43;;;0.43;;
7557;SDS011;3820;51.098;13.716;2022-08-06T04:19:05;0.93;;;0.90;;
7557;SDS011;3820;51.098;13.716;2022-08-06T04:21:34;0.70;;;0.63;;
7557;SDS011;3820;51.098;13.716;2022-08-06T04:24:21;1.75;;;0.40;;
7557;SDS011;3820;51.098;13.716;2022-08-06T04:26:55;0.70;;;0.70;;
7557;SDS011;3820;51.098;13.716;2022-08-06T04:29:25;0.68;;;0.68;;
7557;SDS011;3820;51.098;13.716;2022-08-06T04:32:13;0.45;;;0.45;;
7557;SDS011;3820;51.098;13.716;2022-08-06T04:34:45;0.22;;;0.22;;
7557;SDS011;3820;51.098;13.716;2022-08-06T04:37:33;0.40;;;0.20;;
7557;SDS011;3820;51.098;13.716;2022-08-06T04:40:06;0.30;;;0.30;;
7557;SDS011;3820;51.098;13.716;2022-08-06T04:42:40;0.20;;;0.20;;
7557;SDS011;3820;51.098;13.716;2022-08-06T04:45:07;0.22;;;0.22;;
7557;SDS011;3820;51.098;13.716;2022-08-06T04:47:55;11.40;;;0.40;;
7557;SDS011;3820;51.098;13.716;2022-08-06T04:50:23;0.17;;;0.17;;
7557;SDS011;3820;51.098;13.716;2022-08-06T04:52:51;0.38;;;0.38;;
7557;SDS011;3820;51.098;13.716;2022-08-06T04:55:18;0.30;;;0.30;;
7557;SDS011;3820;51.098;13.716;2022-08-06T04:57:59;0.30;;;0.30;;
7557;SDS011;3820;51.098;13.716;2022-08-06T05:00:41;0.43;;;0.40;;
7557;SDS011;3820;51.098;13.716;2022-08-06T05:03:28;0.20;;;0.20;;
7557;SDS011;3820;51.098;13.716;2022-08-06T05:06:20;0.40;;;0.40;;
7557;SDS011;3820;51.098;13.716;2022-08-06T05:08:51;0.13;;;0.13;;
7557;SDS011;3820;51.098;13.716;2022-08-06T05:11:28;0.65;;;0.40;;
7557;SDS011;3820;51.098;13.716;2022-08-06T05:14:01;0.50;;;0.30;;
7557;SDS011;3820;51.098;13.716;2022-08-06T05:16:34;0.43;;;0.43;;
7557;SDS011;3820;51.098;13.716;2022-08-06T05:19:04;0.40;;;0.32;;
7557;SDS011;3820;51.098;13.716;2022-08-06T05:21:48;0.10;;;0.10;;
7557;SDS011;3820;51.098;13.716;2022-08-06T05:24:35;1.10;;;0.63;;
7557;SDS011;3820;51.098;13.716;2022-08-06T05:27:16;0.28;;;0.28;;
7557;SDS011;3820;51.098;13.716;2022-08-06T05:29:43;0.10;;;0.10;;
7557;SDS011;3820;51.098;13.716;2022-08-06T05:32:19;0.35;;;0.32;;
7557;SDS011;3820;51.098;13.716;2022-08-06T05:34:50;0.20;;;0.20;;
7557;SDS011;3820;51.098;13.716;2022-08-06T05:37:18;0.47;;;0.43;;
7557;SDS011;3820;51.098;13.716;2022-08-06T05:39:51;0.20;;;0.20;;
7557;SDS011;3820;51.098;13.716;2022-08-06T05:42:24;0.28;;;0.28;;
7557;SDS011;3820;51.098;13.716;2022-08-06T05:44:52;0.20;;;0.20;;
7557;SDS011;3820;51.098;13.716;2022-08-06T05:47:20;0.10;;;0.10;;
7557;SDS011;3820;51.098;13.716;2022-08-06T05:50:07;0.20;;;0.20;;
7557;SDS011;3820;51.098;13.716;2022-08-06T05:58:15;0.28;;;0.28;;
7557;SDS011;3820;51.098;13.716;2022-08-06T06:00:45;0.20;;;0.20;;
7557;SDS011;3820;51.098;13.716;2022-08-06T06:03:20;0.10;;;0.10;;
7557;SDS011;3820;51.098;13.716;2022-08-06T06:05:59;0.32;;;0.32;;
7557;SDS011;3820;51.098;13.716;2022-08-06T06:08:36;0.32;;;0.32;;
7557;SDS011;3820;51.098;13.716;2022-08-06T06:11:06;0.13;;;0.13;;
7557;SDS011;3820;51.098;13.716;2022-08-06T06:13:39;0.65;;;0.65;;
7557;SDS011;3820;51.098;13.716;2022-08-06T06:19:38;0.10;;;0.10;;
7557;SDS011;3820;51.098;13.716;2022-08-06T06:22:23;0.25;;;0.25;;
7557;SDS011;3820;51.098;13.716;2022-08-06T06:25:01;0.20;;;0.20;;
7557;SDS011;3820;51.098;13.716;2022-08-06T06:27:42;0.38;;;0.38;;
7557;SDS011;3820;51.098;13.716;2022-08-06T06:30:15;0.20;;;0.20;;
7557;SDS011;3820;51.098;13.716;2022-08-06T06:33:14;0.30;;;0.30;;
7557;SDS011;3820;51.098;13.716;2022-08-06T06:36:05;0.10;;;0.10;;
7557;SDS011;3820;51.098;13.716;2022-08-06T06:41:39;0.17;;;0.17;;
7557;SDS011;3820;51.098;13.716;2022-08-06T06:44:21;2.40;;;0.40;;
7557;SDS011;3820;51.098;13.716;2022-08-06T06:47:15;0.40;;;0.40;;
7557;SDS011;3820;51.098;13.716;2022-08-06T06:49:55;0.20;;;0.20;;
7557;SDS011;3820;51.098;13.716;2022-08-06T06:52:40;0.10;;;0.10;;
7557;SDS011;3820;51.098;13.716;2022-08-06T06:55:12;0.25;;;0.22;;
7557;SDS011;3820;51.098;13.716;2022-08-06T07:01:03;0.32;;;0.25;;
7557;SDS011;3820;51.098;13.716;2022-08-06T07:03:52;0.13;;;0.13;;
7557;SDS011;3820;51.098;13.716;2022-08-06T07:06:21;1.27;;;0.30;;
7557;SDS011;3820;51.098;13.716;2022-08-06T07:09:07;0.20;;;0.17;;
7557;SDS011;3820;51.098;13.716;2022-08-06T07:11:42;0.28;;;0.28;;
7557;SDS011;3820;51.098;13.716;2022-08-06T07:14:29;0.20;;;0.20;;
7557;SDS011;3820;51.098;13.716;2022-08-06T07:16:59;0.20;;;0.20;;
7557;SDS011;3820;51.098;13.716;2022-08-06T07:19:46;0.20;;;0.20;;
7557;SDS011;3820;51.098;13.716;2022-08-06T07:22:16;0.28;;;0.22;;
7557;SDS011;3820;51.098;13.716;2022-08-06T07:24:44;0.20;;;0.20;;
7557;SDS011;3820;51.098;13.716;2022-08-06T07:27:12;1.17;;;0.50;;
7557;SDS011;3820;51.098;13.716;2022-08-06T07:29:41;0.30;;;0.20;;
7557;SDS011;3820;51.098;13.716;2022-08-06T07:32:26;0.17;;;0.10;;
7557;SDS011;3820;51.098;13.716;2022-08-06T07:34:58;0.22;;;0.22;;
7557;SDS011;3820;51.098;13.716;2022-08-06T07:37:26;0.28;;;0.28;;
7557;SDS011;3820;51.098;13.716;2022-08-06T07:40:05;0.30;;;0.30;;
7557;SDS011;3820;51.098;13.716;2022-08-06T07:42:35;0.30;;;0.20;;
7557;SDS011;3820;51.098;13.716;2022-08-06T07:45:03;0.13;;;0.13;;
7557;SDS011;3820;51.098;13.716;2022-08-06T07:47:41;0.20;;;0.20;;
7557;SDS011;3820;51.098;13.716;2022-08-06T07:50:21;0.10;;;0.10;;
7557;SDS011;3820;51.098;13.716;2022-08-06T07:52:49;1.00;;;0.32;;
7557;SDS011;3820;51.098;13.716;2022-08-06T07:55:19;0.10;;;0.10;;
7557;SDS011;3820;51.098;13.716;2022-08-06T07:57:48;0.30;;;0.20;;
7557;SDS011;3820;51.098;13.716;2022-08-06T08:00:21;1.27;;;0.43;;
7557;SDS011;3820;51.098;13.716;2022-08-06T08:02:52;1.17;;;0.57;;
7557;SDS011;3820;51.098;13.716;2022-08-06T08:05:58;0.10;;;0.10;;
7557;SDS011;3820;51.098;13.716;2022-08-06T08:08:54;0.20;;;0.13;;
7557;SDS011;3820;51.098;13.716;2022-08-06T08:11:26;0.20;;;0.20;;
7557;SDS011;3820;51.098;13.716;2022-08-06T08:14:14;0.47;;;0.35;;
7557;SDS011;3820;51.098;13.716;2022-08-06T08:16:46;0.20;;;0.20;;
7557;SDS011;3820;51.098;13.716;2022-08-06T08:19:30;0.10;;;0.10;;
7557;SDS011;3820;51.098;13.716;2022-08-06T08:22:04;0.45;;;0.20;;
7557;SDS011;3820;51.098;13.716;2022-08-06T08:24:33;0.10;;;0.10;;
7557;SDS011;3820;51.098;13.716;2022-08-06T08:27:01;0.20;;;0.20;;
7557;SDS011;3820;51.098;13.716;2022-08-06T08:29:48;0.10;;;0.10;;
7557;SDS011;3820;51.098;13.716;2022-08-06T08:32:20;0.15;;;0.15;;
7557;SDS011;3820;51.098;13.716;2022-08-06T08:34:48;0.10;;;0.10;;
7557;SDS011;3820;51.098;13.716;2022-08-06T08:37:19;0.20;;;0.20;;
7557;SDS011;3820;51.098;13.716;2022-08-06T08:39:46;0.30;;;0.20;;
7557;SDS011;3820;51.098;13.716;2022-08-06T08:42:17;0.20;;;0.17;;
7557;SDS011;3820;51.098;13.716;2022-08-06T08:44:57;0.25;;;0.17;;
7557;SDS011;3820;51.098;13.716;2022-08-06T08:47:25;0.17;;;0.10;;
7557;SDS011;3820;51.098;13.716;2022-08-06T08:50:12;0.22;;;0.10;;
7557;SDS011;3820;51.098;13.716;2022-08-06T08:52:44;0.45;;;0.40;;
7557;SDS011;3820;51.098;13.716;2022-08-06T08:55:12;0.13;;;0.13;;
7557;SDS011;3820;51.098;13.716;2022-08-06T08:58:02;0.20;;;0.10;;
7557;SDS011;3820;51.098;13.716;2022-08-06T09:00:50;0.22;;;0.22;;
7557;SDS011;3820;51.098;13.716;2022-08-06T09:03:20;0.40;;;0.30;;
7557;SDS011;3820;51.098;13.716;2022-08-06T09:05:48;0.00;;;0.00;;
7557;SDS011;3820;51.098;13.716;2022-08-06T09:08:18;0.15;;;0.15;;
7557;SDS011;3820;51.098;13.716;2022-08-06T09:11:05;0.30;;;0.20;;
7557;SDS011;3820;51.098;13.716;2022-08-06T09:13:52;0.77;;;0.22;;
7557;SDS011;3820;51.098;13.716;2022-08-06T09:16:26;0.40;;;0.20;;
7557;SDS011;3820;51.098;13.716;2022-08-06T09:18:58;0.13;;;0.10;;
7557;SDS011;3820;51.098;13.716;2022-08-06T09:21:25;0.47;;;0.40;;
7557;SDS011;3820;51.098;13.716;2022-08-06T09:23:58;0.50;;;0.10;;
7557;SDS011;3820;51.098;13.716;2022-08-06T09:26:30;0.50;;;0.20;;
7557;SDS011;3820;51.098;13.716;2022-08-06T09:29:19;0.20;;;0.20;;
7557;SDS011;3820;51.098;13.716;2022-08-06T09:31:56;0.10;;;0.10;;
7557;SDS011;3820;51.098;13.716;2022-08-06T09:34:34;0.10;;;0.08;;
7557;SDS011;3820;51.098;13.716;2022-08-06T09:37:06;0.08;;;0.08;;
7557;SDS011;3820;51.098;13.716;2022-08-06T09:39:37;0.13;;;0.13;;
7557;SDS011;3820;51.098;13.716;2022-08-06T09:42:41;0.08;;;0.08;;
7557;SDS011;3820;51.098;13.716;2022-08-06T09:45:11;0.35;;;0.20;;
7557;SDS011;3820;51.098;13.716;2022-08-06T09:47:43;0.77;;;0.20;;
7557;SDS011;3820;51.098;13.716;2022-08-06T09:50:42;0.13;;;0.13;;
7557;SDS011;3820;51.098;13.716;2022-08-06T09:53:10;0.10;;;0.10;;
7557;SDS011;3820;51.098;13.716;2022-08-06T09:55:40;0.10;;;0.10;;
7557;SDS011;3820;51.098;13.716;2022-08-06T09:58:08;1.98;;;0.28;;
7557;SDS011;3820;51.098;13.716;2022-08-06T10:00:35;0.00;;;0.00;;
7557;SDS011;3820;51.098;13.716;2022-08-06T10:03:04;0.45;;;0.30;;
7557;SDS011;3820;51.098;13.716;2022-08-06T10:06:02;0.15;;;0.15;;
7557;SDS011;3820;51.098;13.716;2022-08-06T10:08:29;0.10;;;0.10;;
7557;SDS011;3820;51.098;13.716;2022-08-06T10:10:56;0.10;;;0.10;;
7557;SDS011;3820;51.098;13.716;2022-08-06T10:13:33;0.00;;;0.00;;
7557;SDS011;3820;51.098;13.716;2022-08-06T10:18:48;0.20;;;0.20;;
7557;SDS011;3820;51.098;13.716;2022-08-06T10:21:30;0.08;;;0.08;;
7557;SDS011;3820;51.098;13.716;2022-08-06T10:24:08;0.03;;;0.03;;
7557;SDS011;3820;51.098;13.716;2022-08-06T10:26:35;0.10;;;0.10;;
7557;SDS011;3820;51.098;13.716;2022-08-06T10:29:06;0.10;;;0.10;;
7557;SDS011;3820;51.098;13.716;2022-08-06T10:31:34;0.13;;;0.13;;
7557;SDS011;3820;51.098;13.716;2022-08-06T10:36:34;0.43;;;0.22;;
7557;SDS011;3820;51.098;13.716;2022-08-06T10:39:02;0.10;;;0.10;;
7557;SDS011;3820;51.098;13.716;2022-08-06T10:41:50;0.00;;;0.00;;
7557;SDS011;3820;51.098;13.716;2022-08-06T10:44:28;0.10;;;0.10;;
7557;SDS011;3820;51.098;13.716;2022-08-06T10:47:03;0.15;;;0.15;;
7557;SDS011;3820;51.098;13.716;2022-08-06T10:49:31;0.10;;;0.10;;
7557;SDS011;3820;51.098;13.716;2022-08-06T10:52:18;0.15;;;0.08;;
7557;SDS011;3820;51.098;13.716;2022-08-06T10:54:50;0.30;;;0.20;;
7557;SDS011;3820;51.098;13.716;2022-08-06T10:57:17;0.25;;;0.25;;
7557;SDS011;3820;51.098;13.716;2022-08-06T11:00:02;0.70;;;0.22;;
7557;SDS011;3820;51.098;13.716;2022-08-06T11:03:35;0.10;;;0.10;;
7557;SDS011;3820;51.098;13.716;2022-08-06T11:05:43;0.30;;;0.10;;
7557;SDS011;3820;51.098;13.716;2022-08-06T11:08:32;0.30;;;0.30;;
7557;SDS011;3820;51.098;13.716;2022-08-06T11:14:06;0.00;;;0.00;;
7557;SDS011;3820;51.098;13.716;2022-08-06T11:16:54;0.13;;;0.13;;
7557;SDS011;3820;51.098;13.716;2022-08-06T11:19:39;0.10;;;0.10;;
7557;SDS011;3820;51.098;13.716;2022-08-06T11:30:54;0.25;;;0.10;;
7557;SDS011;3820;51.098;13.716;2022-08-06T11:33:58;0.10;;;0.10;;
7557;SDS011;3820;51.098;13.716;2022-08-06T11:36:25;0.20;;;0.13;;
7557;SDS011;3820;51.098;13.716;2022-08-06T11:41:27;0.10;;;0.10;;
7557;SDS011;3820;51.098;13.716;2022-08-06T11:44:16;0.45;;;0.30;;
7557;SDS011;3820;51.098;13.716;2022-08-06T11:47:09;0.77;;;0.10;;
7557;SDS011;3820;51.098;13.716;2022-08-06T11:49:48;0.10;;;0.10;;
7557;SDS011;3820;51.098;13.716;2022-08-06T11:55:06;0.10;;;0.08;;
7557;SDS011;3820;51.098;13.716;2022-08-06T11:57:47;0.05;;;0.05;;
7557;SDS011;3820;51.098;13.716;2022-08-06T12:00:16;0.03;;;0.03;;
7557;SDS011;3820;51.098;13.716;2022-08-06T12:02:46;0.10;;;0.10;;
7557;SDS011;3820;51.098;13.716;2022-08-06T12:13:53;0.20;;;0.20;;
7557;SDS011;3820;51.098;13.716;2022-08-06T12:16:40;0.10;;;0.10;;
7557;SDS011;3820;51.098;13.716;2022-08-06T12:19:19;0.10;;;0.10;;
7557;SDS011;3820;51.098;13.716;2022-08-06T12:21:51;0.17;;;0.17;;
7557;SDS011;3820;51.098;13.716;2022-08-06T12:24:22;0.20;;;0.20;;
7557;SDS011;3820;51.098;13.716;2022-08-06T12:27:10;0.55;;;0.30;;
7557;SDS011;3820;51.098;13.716;2022-08-06T12:29:38;0.03;;;0.03;;
7557;SDS011;3820;51.098;13.716;2022-08-06T12:32:20;0.55;;;0.10;;
7557;SDS011;3820;51.098;13.716;2022-08-06T12:34:50;0.90;;;0.40;;
7557;SDS011;3820;51.098;13.716;2022-08-06T12:40:23;0.10;;;0.10;;
7557;SDS011;3820;51.098;13.716;2022-08-06T12:42:50;0.10;;;0.10;;
7557;SDS011;3820;51.098;13.716;2022-08-06T12:45:21;0.20;;;0.20;;
7557;SDS011;3820;51.098;13.716;2022-08-06T12:48:10;0.10;;;0.10;;
7557;SDS011;3820;51.098;13.716;2022-08-06T12:50:39;0.10;;;0.10;;
7557;SDS011;3820;51.098;13.716;2022-08-06T12:53:10;0.10;;;0.10;;
7557;SDS011;3820;51.098;13.716;2022-08-06T12:58:24;0.20;;;0.20;;
7557;SDS011;3820;51.098;13.716;2022-08-06T13:01:10;0.10;;;0.10;;
7557;SDS011;3820;51.098;13.716;2022-08-06T13:03:43;0.10;;;0.10;;
7557;SDS011;3820;51.098;13.716;2022-08-06T13:06:28;0.20;;;0.20;;
7557;SDS011;3820;51.098;13.716;2022-08-06T13:09:01;0.35;;;0.35;;
7557;SDS011;3820;51.098;13.716;2022-08-06T13:11:33;0.30;;;0.30;;
7557;SDS011;3820;51.098;13.716;2022-08-06T13:14:09;0.20;;;0.20;;
7557;SDS011;3820;51.098;13.716;2022-08-06T13:16:44;0.30;;;0.10;;
7557;SDS011;3820;51.098;13.716;2022-08-06T13:19:21;0.08;;;0.08;;
7557;SDS011;3820;51.098;13.716;2022-08-06T13:21:59;0.20;;;0.20;;
7557;SDS011;3820;51.098;13.716;2022-08-06T13:24:28;0.50;;;0.30;;
7557;SDS011;3820;51.098;13.716;2022-08-06T13:26:56;0.03;;;0.03;;
7557;SDS011;3820;51.098;13.716;2022-08-06T13:29:25;0.10;;;0.10;;
7557;SDS011;3820;51.098;13.716;2022-08-06T13:32:13;0.20;;;0.20;;
7557;SDS011;3820;51.098;13.716;2022-08-06T13:34:58;0.00;;;0.00;;
7557;SDS011;3820;51.098;13.716;2022-08-06T13:40:43;0.10;;;0.10;;
7557;SDS011;3820;51.098;13.716;2022-08-06T13:43:17;0.20;;;0.20;;
7557;SDS011;3820;51.098;13.716;2022-08-06T13:46:05;0.10;;;0.10;;
7557;SDS011;3820;51.098;13.716;2022-08-06T13:48:47;0.10;;;0.10;;
7557;SDS011;3820;51.098;13.716;2022-08-06T13:51:15;0.38;;;0.20;;
7557;SDS011;3820;51.098;13.716;2022-08-06T13:53:52;0.10;;;0.10;;
7557;SDS011;3820;51.098;13.716;2022-08-06T13:56:23;0.10;;;0.10;;
7557;SDS011;3820;51.098;13.716;2022-08-06T13:58:55;0.10;;;0.10;;
7557;SDS011;3820;51.098;13.716;2022-08-06T14:01:23;0.20;;;0.10;;
7557;SDS011;3820;51.098;13.716;2022-08-06T14:04:00;0.10;;;0.10;;
7557;SDS011;3820;51.098;13.716;2022-08-06T14:06:27;0.00;;;0.00;;
7557;SDS011;3820;51.098;13.716;2022-08-06T14:08:54;0.10;;;0.10;;
7557;SDS011;3820;51.098;13.716;2022-08-06T14:11:24;0.20;;;0.20;;
7557;SDS011;3820;51.098;13.716;2022-08-06T14:13:53;0.15;;;0.15;;
7557;SDS011;3820;51.098;13.716;2022-08-06T14:16:20;0.10;;;0.10;;
7557;SDS011;3820;51.098;13.716;2022-08-06T14:18:46;0.10;;;0.10;;
7557;SDS011;3820;51.098;13.716;2022-08-06T14:21:28;0.65;;;0.10;;
7557;SDS011;3820;51.098;13.716;2022-08-06T14:23:56;0.50;;;0.10;;
7557;SDS011;3820;51.098;13.716;2022-08-06T14:26:27;0.10;;;0.10;;
7557;SDS011;3820;51.098;13.716;2022-08-06T14:28:53;1.52;;;0.13;;
7557;SDS011;3820;51.098;13.716;2022-08-06T14:31:40;2.00;;;0.10;;
7557;SDS011;3820;51.098;13.716;2022-08-06T14:34:22;0.08;;;0.08;;
7557;SDS011;3820;51.098;13.716;2022-08-06T14:37:02;0.10;;;0.10;;
7557;SDS011;3820;51.098;13.716;2022-08-06T14:39:39;2.40;;;0.20;;
7557;SDS011;3820;51.098;13.716;2022-08-06T14:42:25;0.10;;;0.10;;
7557;SDS011;3820;51.098;13.716;2022-08-06T14:45:13;0.20;;;0.20;;
7557;SDS011;3820;51.098;13.716;2022-08-06T14:47:40;0.20;;;0.20;;
7557;SDS011;3820;51.098;13.716;2022-08-06T14:50:25;0.10;;;0.10;;
7557;SDS011;3820;51.098;13.716;2022-08-06T14:53:06;0.20;;;0.20;;
7557;SDS011;3820;51.098;13.716;2022-08-06T14:55:35;0.75;;;0.38;;
7557;SDS011;3820;51.098;13.716;2022-08-06T14:58:02;0.20;;;0.20;;
7557;SDS011;3820;51.098;13.716;2022-08-06T15:00:34;0.08;;;0.08;;
7557;SDS011;3820;51.098;13.716;2022-08-06T15:03:06;0.10;;;0.10;;
7557;SDS011;3820;51.098;13.716;2022-08-06T15:05:39;0.10;;;0.10;;
7557;SDS011;3820;51.098;13.716;2022-08-06T15:08:27;0.10;;;0.10;;
7557;SDS011;3820;51.098;13.716;2022-08-06T15:10:55;0.30;;;0.10;;
7557;SDS011;3820;51.098;13.716;2022-08-06T15:13:21;0.20;;;0.20;;
7557;SDS011;3820;51.098;13.716;2022-08-06T15:16:04;0.10;;;0.10;;
7557;SDS011;3820;51.098;13.716;2022-08-06T15:18:51;0.10;;;0.10;;
7557;SDS011;3820;51.098;13.716;2022-08-06T15:21:38;0.10;;;0.10;;
7557;SDS011;3820;51.098;13.716;2022-08-06T15:24:19;0.10;;;0.10;;
7557;SDS011;3820;51.098;13.716;2022-08-06T15:26:46;1.65;;;0.63;;
7557;SDS011;3820;51.098;13.716;2022-08-06T15:29:15;0.20;;;0.20;;
7557;SDS011;3820;51.098;13.716;2022-08-06T15:31:45;0.05;;;0.05;;
7557;SDS011;3820;51.098;13.716;2022-08-06T15:34:13;0.30;;;0.30;;
7557;SDS011;3820;51.098;13.716;2022-08-06T15:36:45;0.43;;;0.00;;
7557;SDS011;3820;51.098;13.716;2022-08-06T15:39:29;0.30;;;0.20;;
7557;SDS011;3820;51.098;13.716;2022-08-06T15:42:18;0.10;;;0.10;;
7557;SDS011;3820;51.098;13.716;2022-08-06T15:44:45;0.20;;;0.20;;
7557;SDS011;3820;51.098;13.716;2022-08-06T15:47:12;0.13;;;0.13;;
7557;SDS011;3820;51.098;13.716;2022-08-06T15:49:40;0.00;;;0.00;;
7557;SDS011;3820;51.098;13.716;2022-08-06T15:52:27;0.15;;;0.15;;
7557;SDS011;3820;51.098;13.716;2022-08-06T15:54:58;0.20;;;0.20;;
7557;SDS011;3820;51.098;13.716;2022-08-06T15:57:24;0.15;;;0.13;;
7557;SDS011;3820;51.098;13.716;2022-08-06T16:00:11;0.10;;;0.10;;
7557;SDS011;3820;51.098;13.716;2022-08-06T16:02:44;0.38;;;0.10;;
7557;SDS011;3820;51.098;13.716;2022-08-06T16:05:16;0.10;;;0.10;;
7557;SDS011;3820;51.098;13.716;2022-08-06T16:08:05;0.22;;;0.22;;
7557;SDS011;3820;51.098;13.716;2022-08-06T16:10:35;0.10;;;0.10;;
7557;SDS011;3820;51.098;13.716;2022-08-06T16:13:06;0.20;;;0.20;;
7557;SDS011;3820;51.098;13.716;2022-08-06T16:15:32;0.10;;;0.10;;
7557;SDS011;3820;51.098;13.716;2022-08-06T16:18:02;0.10;;;0.10;;
7557;SDS011;3820;51.098;13.716;2022-08-06T16:20:50;0.10;;;0.10;;
7557;SDS011;3820;51.098;13.716;2022-08-06T16:23:17;0.10;;;0.10;;
7557;SDS011;3820;51.098;13.716;2022-08-06T16:26:04;0.08;;;0.08;;
7557;SDS011;3820;51.098;13.716;2022-08-06T16:28:51;0.20;;;0.20;;
7557;SDS011;3820;51.098;13.716;2022-08-06T16:31:17;0.10;;;0.10;;
7557;SDS011;3820;51.098;13.716;2022-08-06T16:33:44;0.05;;;0.05;;
7557;SDS011;3820;51.098;13.716;2022-08-06T16:36:21;0.10;;;0.10;;
7557;SDS011;3820;51.098;13.716;2022-08-06T16:38:58;0.10;;;0.10;;
7557;SDS011;3820;51.098;13.716;2022-08-06T16:41:25;1.23;;;0.20;;
7557;SDS011;3820;51.098;13.716;2022-08-06T16:44:12;0.38;;;0.38;;
7557;SDS011;3820;51.098;13.716;2022-08-06T16:46:39;0.10;;;0.10;;
7557;SDS011;3820;51.098;13.716;2022-08-06T16:49:09;0.05;;;0.05;;
7557;SDS011;3820;51.098;13.716;2022-08-06T16:51:46;0.30;;;0.30;;
7557;SDS011;3820;51.098;13.716;2022-08-06T16:54:34;0.30;;;0.20;;